Terminal Aerodrome Forecast
Issued by NWS Charleston, WV

Current Version | Previous Version | Graphics & Text | Print | Product List | Glossary On
Versions: 1 2 3 4 5 6 7 8 9 10 11 12 13 14 15 16 17 18 19 20 21 22 23
000
FTUS41 KRLX 270400 AAB
TAFPKB
TAF AMD
KPKB 270431Z 2705/2724 35006KT 5SM -SHSN BKN025
      TEMPO 2705/2706 2SM -SN BKN015
     FM270600 35006KT P6SM BKN035
     FM270700 35006KT P6SM BKN100
     FM270900 35005KT P6SM SKC
     FM271700 33006KT P6SM SCT035=

USA.gov is the U.S. government's official web portal to all federal, state and local government web resources and services.